sensor_id;sensor_type;location;lat;lon;timestamp;temperature;humidity
7196;DHT22;3639;51.308;5.624;2022-11-20T00:01:14;1.20;99.90
7196;DHT22;3639;51.308;5.624;2022-11-20T00:03:40;1.10;99.90
7196;DHT22;3639;51.308;5.624;2022-11-20T00:06:09;1.00;99.90
7196;DHT22;3639;51.308;5.624;2022-11-20T00:08:35;1.00;99.90
7196;DHT22;3639;51.308;5.624;2022-11-20T00:11:18;1.00;99.90
7196;DHT22;3639;51.308;5.624;2022-11-20T00:13:45;1.00;99.90
7196;DHT22;3639;51.308;5.624;2022-11-20T00:16:13;1.00;99.90
7196;DHT22;3639;51.308;5.624;2022-11-20T00:18:38;0.90;99.90
7196;DHT22;3639;51.308;5.624;2022-11-20T00:21:20;0.90;99.90
7196;DHT22;3639;51.308;5.624;2022-11-20T00:23:46;0.90;99.90
7196;DHT22;3639;51.308;5.624;2022-11-20T00:26:14;0.80;99.90
7196;DHT22;3639;51.308;5.624;2022-11-20T00:28:41;0.80;99.90
7196;DHT22;3639;51.308;5.624;2022-11-20T00:31:12;0.80;99.90
7196;DHT22;3639;51.308;5.624;2022-11-20T00:33:38;0.80;99.90
7196;DHT22;3639;51.308;5.624;2022-11-20T00:36:11;0.80;99.90
7196;DHT22;3639;51.308;5.624;2022-11-20T00:38:38;0.80;99.90
7196;DHT22;3639;51.308;5.624;2022-11-20T00:41:06;0.80;99.90
7196;DHT22;3639;51.308;5.624;2022-11-20T00:43:32;0.70;99.90
7196;DHT22;3639;51.308;5.624;2022-11-20T00:46:03;0.70;99.90
7196;DHT22;3639;51.308;5.624;2022-11-20T00:48:29;0.60;99.90
7196;DHT22;3639;51.308;5.624;2022-11-20T00:50:55;0.60;99.90
7196;DHT22;3639;51.308;5.624;2022-11-20T00:53:21;0.60;99.90
7196;DHT22;3639;51.308;5.624;2022-11-20T00:56:04;0.50;99.90
7196;DHT22;3639;51.308;5.624;2022-11-20T00:58:35;0.50;99.90
7196;DHT22;3639;51.308;5.624;2022-11-20T01:01:09;0.50;99.90
7196;DHT22;3639;51.308;5.624;2022-11-20T01:03:37;0.50;99.90
7196;DHT22;3639;51.308;5.624;2022-11-20T01:06:05;0.40;99.90
7196;DHT22;3639;51.308;5.624;2022-11-20T01:08:32;0.40;99.90
7196;DHT22;3639;51.308;5.624;2022-11-20T01:11:00;0.40;99.90
7196;DHT22;3639;51.308;5.624;2022-11-20T01:13:27;0.40;99.90
7196;DHT22;3639;51.308;5.624;2022-11-20T01:16:11;0.30;99.90
7196;DHT22;3639;51.308;5.624;2022-11-20T01:18:39;0.20;99.90
7196;DHT22;3639;51.308;5.624;2022-11-20T01:21:08;0.20;99.90
7196;DHT22;3639;51.308;5.624;2022-11-20T01:23:35;0.10;99.90
7196;DHT22;3639;51.308;5.624;2022-11-20T01:26:03;0.10;99.90
7196;DHT22;3639;51.308;5.624;2022-11-20T01:28:29;0.00;99.90
7196;DHT22;3639;51.308;5.624;2022-11-20T01:30:54;0.10;99.90
7196;DHT22;3639;51.308;5.624;2022-11-20T01:33:20;0.00;99.90
7196;DHT22;3639;51.308;5.624;2022-11-20T01:35:46;0.00;99.90
7196;DHT22;3639;51.308;5.624;2022-11-20T01:38:11;0.00;99.90
7196;DHT22;3639;51.308;5.624;2022-11-20T01:40:37;0.00;99.90
7196;DHT22;3639;51.308;5.624;2022-11-20T01:43:19;0.00;99.90
7196;DHT22;3639;51.308;5.624;2022-11-20T01:49:02;0.00;99.90
7196;DHT22;3639;51.308;5.624;2022-11-20T01:51:53;0.00;99.90
7196;DHT22;3639;51.308;5.624;2022-11-20T01:54:32;0.00;99.90
7196;DHT22;3639;51.308;5.624;2022-11-20T01:56:59;0.00;99.90
7196;DHT22;3639;51.308;5.624;2022-11-20T01:59:26;0.00;99.90
7196;DHT22;3639;51.308;5.624;2022-11-20T02:01:53;0.00;99.90
7196;DHT22;3639;51.308;5.624;2022-11-20T02:04:19;0.00;99.90
7196;DHT22;3639;51.308;5.624;2022-11-20T02:06:58;0.10;99.90
7196;DHT22;3639;51.308;5.624;2022-11-20T02:09:24;0.20;99.90
7196;DHT22;3639;51.308;5.624;2022-11-20T02:11:51;0.30;99.90
7196;DHT22;3639;51.308;5.624;2022-11-20T02:14:17;0.30;99.90
7196;DHT22;3639;51.308;5.624;2022-11-20T02:16:47;0.40;99.90
7196;DHT22;3639;51.308;5.624;2022-11-20T02:22:21;0.60;99.90
7196;DHT22;3639;51.308;5.624;2022-11-20T02:24:51;0.60;99.90
7196;DHT22;3639;51.308;5.624;2022-11-20T02:27:17;0.50;99.90
7196;DHT22;3639;51.308;5.624;2022-11-20T02:30:00;0.50;99.90
7196;DHT22;3639;51.308;5.624;2022-11-20T02:32:32;0.30;99.90
7196;DHT22;3639;51.308;5.624;2022-11-20T02:35:10;0.30;99.90
7196;DHT22;3639;51.308;5.624;2022-11-20T02:37:56;0.30;99.90
7196;DHT22;3639;51.308;5.624;2022-11-20T02:40:22;0.20;99.90
7196;DHT22;3639;51.308;5.624;2022-11-20T02:42:52;0.10;99.90
7196;DHT22;3639;51.308;5.624;2022-11-20T02:45:17;0.20;99.90
7196;DHT22;3639;51.308;5.624;2022-11-20T02:47:43;0.40;99.90
7196;DHT22;3639;51.308;5.624;2022-11-20T02:50:09;0.50;99.90
7196;DHT22;3639;51.308;5.624;2022-11-20T02:52:34;0.70;99.90
7196;DHT22;3639;51.308;5.624;2022-11-20T02:55:00;0.80;99.90
7196;DHT22;3639;51.308;5.624;2022-11-20T02:57:26;0.80;99.90
7196;DHT22;3639;51.308;5.624;2022-11-20T02:59:51;0.90;99.90
7196;DHT22;3639;51.308;5.624;2022-11-20T03:02:17;0.90;99.90
7196;DHT22;3639;51.308;5.624;2022-11-20T03:04:42;0.90;99.90
7196;DHT22;3639;51.308;5.624;2022-11-20T03:07:09;1.00;99.90
7196;DHT22;3639;51.308;5.624;2022-11-20T03:09:35;1.00;99.90
7196;DHT22;3639;51.308;5.624;2022-11-20T03:12:00;1.00;99.90
7196;DHT22;3639;51.308;5.624;2022-11-20T03:14:26;0.90;99.90
7196;DHT22;3639;51.308;5.624;2022-11-20T03:16:51;0.90;99.90
7196;DHT22;3639;51.308;5.624;2022-11-20T03:19:17;1.00;99.90
7196;DHT22;3639;51.308;5.624;2022-11-20T03:21:43;1.00;99.90
7196;DHT22;3639;51.308;5.624;2022-11-20T03:24:09;1.00;99.90
7196;DHT22;3639;51.308;5.624;2022-11-20T03:26:34;1.00;99.90
7196;DHT22;3639;51.308;5.624;2022-11-20T03:29:03;1.10;99.90
7196;DHT22;3639;51.308;5.624;2022-11-20T03:31:35;0.90;99.90
7196;DHT22;3639;51.308;5.624;2022-11-20T03:34:01;0.80;99.90
7196;DHT22;3639;51.308;5.624;2022-11-20T03:36:28;0.80;99.90
7196;DHT22;3639;51.308;5.624;2022-11-20T03:38:54;0.80;99.90
7196;DHT22;3639;51.308;5.624;2022-11-20T03:41:22;0.80;99.90
7196;DHT22;3639;51.308;5.624;2022-11-20T03:43:49;0.90;99.90
7196;DHT22;3639;51.308;5.624;2022-11-20T03:46:15;0.90;99.90
7196;DHT22;3639;51.308;5.624;2022-11-20T03:48:41;1.00;99.90
7196;DHT22;3639;51.308;5.624;2022-11-20T03:53:45;1.00;99.90
7196;DHT22;3639;51.308;5.624;2022-11-20T03:56:13;1.00;99.90
7196;DHT22;3639;51.308;5.624;2022-11-20T03:58:40;1.10;99.90
7196;DHT22;3639;51.308;5.624;2022-11-20T04:03:33;1.00;99.90
7196;DHT22;3639;51.308;5.624;2022-11-20T04:06:07;1.00;99.90
7196;DHT22;3639;51.308;5.624;2022-11-20T04:08:33;1.00;99.90
7196;DHT22;3639;51.308;5.624;2022-11-20T04:13:38;0.90;99.90
7196;DHT22;3639;51.308;5.624;2022-11-20T04:16:05;0.80;99.90
7196;DHT22;3639;51.308;5.624;2022-11-20T04:18:32;0.70;99.90
7196;DHT22;3639;51.308;5.624;2022-11-20T04:20:58;0.70;99.90
7196;DHT22;3639;51.308;5.624;2022-11-20T04:23:24;0.60;99.90
7196;DHT22;3639;51.308;5.624;2022-11-20T04:25:50;0.60;99.90
7196;DHT22;3639;51.308;5.624;2022-11-20T04:28:16;0.50;99.90
7196;DHT22;3639;51.308;5.624;2022-11-20T04:30:42;0.50;99.90
7196;DHT22;3639;51.308;5.624;2022-11-20T04:33:07;0.60;99.90
7196;DHT22;3639;51.308;5.624;2022-11-20T04:35:37;0.60;99.90
7196;DHT22;3639;51.308;5.624;2022-11-20T04:38:03;0.70;99.90
7196;DHT22;3639;51.308;5.624;2022-11-20T04:40:30;0.80;99.90
7196;DHT22;3639;51.308;5.624;2022-11-20T04:42:56;0.90;99.90
7196;DHT22;3639;51.308;5.624;2022-11-20T04:45:23;0.90;99.90
7196;DHT22;3639;51.308;5.624;2022-11-20T04:47:49;0.90;99.90
7196;DHT22;3639;51.308;5.624;2022-11-20T04:50:14;0.90;99.90
7196;DHT22;3639;51.308;5.624;2022-11-20T04:52:40;0.90;99.90
7196;DHT22;3639;51.308;5.624;2022-11-20T04:55:07;0.90;99.90
7196;DHT22;3639;51.308;5.624;2022-11-20T04:57:32;1.00;99.90
7196;DHT22;3639;51.308;5.624;2022-11-20T04:59:58;0.90;99.90
7196;DHT22;3639;51.308;5.624;2022-11-20T05:02:24;1.00;99.90
7196;DHT22;3639;51.308;5.624;2022-11-20T05:04:49;1.00;99.90
7196;DHT22;3639;51.308;5.624;2022-11-20T05:07:15;1.00;99.90
7196;DHT22;3639;51.308;5.624;2022-11-20T05:09:40;1.00;99.90
7196;DHT22;3639;51.308;5.624;2022-11-20T05:12:09;1.10;99.90
7196;DHT22;3639;51.308;5.624;2022-11-20T05:14:35;1.10;99.90
7196;DHT22;3639;51.308;5.624;2022-11-20T05:17:01;1.10;99.90
7196;DHT22;3639;51.308;5.624;2022-11-20T05:19:27;1.10;99.90
7196;DHT22;3639;51.308;5.624;2022-11-20T05:21:52;1.10;99.90
7196;DHT22;3639;51.308;5.624;2022-11-20T05:24:18;1.10;99.90
7196;DHT22;3639;51.308;5.624;2022-11-20T05:26:43;1.10;99.90
7196;DHT22;3639;51.308;5.624;2022-11-20T05:29:12;1.20;99.90
7196;DHT22;3639;51.308;5.624;2022-11-20T05:31:40;1.10;99.90
7196;DHT22;3639;51.308;5.624;2022-11-20T05:34:06;1.00;99.90
7196;DHT22;3639;51.308;5.624;2022-11-20T05:36:32;1.00;99.90
7196;DHT22;3639;51.308;5.624;2022-11-20T05:38:58;1.00;99.90
7196;DHT22;3639;51.308;5.624;2022-11-20T05:41:24;1.00;99.90
7196;DHT22;3639;51.308;5.624;2022-11-20T05:43:50;1.00;99.90
7196;DHT22;3639;51.308;5.624;2022-11-20T05:46:19;1.00;99.90
7196;DHT22;3639;51.308;5.624;2022-11-20T05:48:45;1.00;99.90
7196;DHT22;3639;51.308;5.624;2022-11-20T05:51:14;1.10;99.90
7196;DHT22;3639;51.308;5.624;2022-11-20T05:53:40;1.00;99.90
7196;DHT22;3639;51.308;5.624;2022-11-20T05:56:11;1.00;99.90
7196;DHT22;3639;51.308;5.624;2022-11-20T05:58:37;1.10;99.90
7196;DHT22;3639;51.308;5.624;2022-11-20T06:03:42;1.20;99.90
7196;DHT22;3639;51.308;5.624;2022-11-20T06:06:11;1.30;99.90
7196;DHT22;3639;51.308;5.624;2022-11-20T06:08:37;1.30;99.90
7196;DHT22;3639;51.308;5.624;2022-11-20T06:11:04;1.30;99.90
7196;DHT22;3639;51.308;5.624;2022-11-20T06:13:30;1.30;99.90
7196;DHT22;3639;51.308;5.624;2022-11-20T06:15:56;1.40;99.90
7196;DHT22;3639;51.308;5.624;2022-11-20T06:18:22;1.30;99.90
7196;DHT22;3639;51.308;5.624;2022-11-20T06:20:47;1.30;99.90
7196;DHT22;3639;51.308;5.624;2022-11-20T06:23:13;1.30;99.90
7196;DHT22;3639;51.308;5.624;2022-11-20T06:25:40;1.30;99.90
7196;DHT22;3639;51.308;5.624;2022-11-20T06:28:07;1.40;99.90
7196;DHT22;3639;51.308;5.624;2022-11-20T06:30:32;1.40;99.90
7196;DHT22;3639;51.308;5.624;2022-11-20T06:32:58;1.40;99.90
7196;DHT22;3639;51.308;5.624;2022-11-20T06:35:23;1.40;99.90
7196;DHT22;3639;51.308;5.624;2022-11-20T06:37:49;1.50;99.90
7196;DHT22;3639;51.308;5.624;2022-11-20T06:40:15;1.50;99.90
7196;DHT22;3639;51.308;5.624;2022-11-20T06:42:40;1.60;99.90
7196;DHT22;3639;51.308;5.624;2022-11-20T06:45:07;1.50;99.90
7196;DHT22;3639;51.308;5.624;2022-11-20T06:47:33;1.50;99.90
7196;DHT22;3639;51.308;5.624;2022-11-20T06:49:58;1.50;99.90
7196;DHT22;3639;51.308;5.624;2022-11-20T06:52:24;1.50;99.90
7196;DHT22;3639;51.308;5.624;2022-11-20T06:54:49;1.50;99.90
7196;DHT22;3639;51.308;5.624;2022-11-20T06:57:15;1.50;99.90
7196;DHT22;3639;51.308;5.624;2022-11-20T06:59:41;1.50;99.90
7196;DHT22;3639;51.308;5.624;2022-11-20T07:02:10;1.50;99.90
7196;DHT22;3639;51.308;5.624;2022-11-20T07:04:36;1.50;99.90
7196;DHT22;3639;51.308;5.624;2022-11-20T07:07:01;1.60;99.90
7196;DHT22;3639;51.308;5.624;2022-11-20T07:09:27;1.60;99.90
7196;DHT22;3639;51.308;5.624;2022-11-20T07:11:53;1.60;99.90
7196;DHT22;3639;51.308;5.624;2022-11-20T07:14:18;1.60;99.90
7196;DHT22;3639;51.308;5.624;2022-11-20T07:16:44;1.70;99.90
7196;DHT22;3639;51.308;5.624;2022-11-20T07:19:09;1.70;99.90
7196;DHT22;3639;51.308;5.624;2022-11-20T07:21:35;1.70;99.90
7196;DHT22;3639;51.308;5.624;2022-11-20T07:24:01;1.70;99.90
7196;DHT22;3639;51.308;5.624;2022-11-20T07:26:26;1.60;99.90
7196;DHT22;3639;51.308;5.624;2022-11-20T07:28:52;1.60;99.90
7196;DHT22;3639;51.308;5.624;2022-11-20T07:31:17;1.50;99.90
7196;DHT22;3639;51.308;5.624;2022-11-20T07:33:43;1.50;99.90
7196;DHT22;3639;51.308;5.624;2022-11-20T07:36:09;1.50;99.90
7196;DHT22;3639;51.308;5.624;2022-11-20T07:38:34;1.60;99.90
7196;DHT22;3639;51.308;5.624;2022-11-20T07:41:00;1.60;99.90
7196;DHT22;3639;51.308;5.624;2022-11-20T07:43:28;1.60;99.90
7196;DHT22;3639;51.308;5.624;2022-11-20T07:46:00;1.60;99.90
7196;DHT22;3639;51.308;5.624;2022-11-20T07:48:26;1.70;99.90
7196;DHT22;3639;51.308;5.624;2022-11-20T07:50:55;1.70;99.90
7196;DHT22;3639;51.308;5.624;2022-11-20T07:53:21;1.70;99.90
7196;DHT22;3639;51.308;5.624;2022-11-20T07:55:47;1.80;99.90
7196;DHT22;3639;51.308;5.624;2022-11-20T07:58:13;1.80;99.90
7196;DHT22;3639;51.308;5.624;2022-11-20T08:00:39;1.80;99.90
7196;DHT22;3639;51.308;5.624;2022-11-20T08:03:05;1.80;99.90
7196;DHT22;3639;51.308;5.624;2022-11-20T08:05:31;1.80;99.90
7196;DHT22;3639;51.308;5.624;2022-11-20T08:07:57;1.90;99.90
7196;DHT22;3639;51.308;5.624;2022-11-20T08:10:22;2.00;99.90
7196;DHT22;3639;51.308;5.624;2022-11-20T08:12:50;2.10;99.90
7196;DHT22;3639;51.308;5.624;2022-11-20T08:15:35;2.20;99.90
7196;DHT22;3639;51.308;5.624;2022-11-20T08:20:27;2.30;99.90
7196;DHT22;3639;51.308;5.624;2022-11-20T08:22:58;2.40;99.90
7196;DHT22;3639;51.308;5.624;2022-11-20T08:25:25;2.40;99.90
7196;DHT22;3639;51.308;5.624;2022-11-20T08:27:50;2.60;99.90
7196;DHT22;3639;51.308;5.624;2022-11-20T08:30:16;2.70;99.90
7196;DHT22;3639;51.308;5.624;2022-11-20T08:32:42;2.80;99.90
7196;DHT22;3639;51.308;5.624;2022-11-20T08:35:08;2.80;99.90
7196;DHT22;3639;51.308;5.624;2022-11-20T08:37:33;2.90;99.90
7196;DHT22;3639;51.308;5.624;2022-11-20T08:39:59;3.00;99.90
7196;DHT22;3639;51.308;5.624;2022-11-20T08:42:25;3.00;99.90
7196;DHT22;3639;51.308;5.624;2022-11-20T08:44:50;3.00;99.90
7196;DHT22;3639;51.308;5.624;2022-11-20T08:47:16;2.90;99.90
7196;DHT22;3639;51.308;5.624;2022-11-20T08:49:41;3.00;99.90
7196;DHT22;3639;51.308;5.624;2022-11-20T08:52:07;3.00;99.90
7196;DHT22;3639;51.308;5.624;2022-11-20T08:54:32;3.00;99.90
7196;DHT22;3639;51.308;5.624;2022-11-20T08:56:58;3.10;99.90
7196;DHT22;3639;51.308;5.624;2022-11-20T08:59:23;3.10;99.90
7196;DHT22;3639;51.308;5.624;2022-11-20T09:01:49;3.20;99.90
7196;DHT22;3639;51.308;5.624;2022-11-20T09:04:15;3.20;99.90
7196;DHT22;3639;51.308;5.624;2022-11-20T09:06:41;3.30;99.90
7196;DHT22;3639;51.308;5.624;2022-11-20T09:09:06;3.40;99.90
7196;DHT22;3639;51.308;5.624;2022-11-20T09:11:32;3.40;99.90
7196;DHT22;3639;51.308;5.624;2022-11-20T09:13:58;3.50;99.90
7196;DHT22;3639;51.308;5.624;2022-11-20T09:16:23;3.40;99.90
7196;DHT22;3639;51.308;5.624;2022-11-20T09:18:50;3.40;99.90
7196;DHT22;3639;51.308;5.624;2022-11-20T09:21:16;3.50;99.90
7196;DHT22;3639;51.308;5.624;2022-11-20T09:23:42;3.40;99.90
7196;DHT22;3639;51.308;5.624;2022-11-20T09:26:11;3.40;99.90
7196;DHT22;3639;51.308;5.624;2022-11-20T09:28:37;3.40;99.90
7196;DHT22;3639;51.308;5.624;2022-11-20T09:31:23;3.50;99.90
7196;DHT22;3639;51.308;5.624;2022-11-20T09:33:49;3.60;99.90
7196;DHT22;3639;51.308;5.624;2022-11-20T09:36:14;3.70;99.90
7196;DHT22;3639;51.308;5.624;2022-11-20T09:38:41;3.80;99.90
7196;DHT22;3639;51.308;5.624;2022-11-20T09:41:30;3.80;99.90
7196;DHT22;3639;51.308;5.624;2022-11-20T09:44:24;3.80;99.90
7196;DHT22;3639;51.308;5.624;2022-11-20T09:49:31;3.80;99.90
7196;DHT22;3639;51.308;5.624;2022-11-20T09:54:40;3.80;99.90
7196;DHT22;3639;51.308;5.624;2022-11-20T09:57:12;3.90;99.90
7196;DHT22;3639;51.308;5.624;2022-11-20T09:59:44;4.10;99.90
7196;DHT22;3639;51.308;5.624;2022-11-20T10:05:11;4.20;99.90
7196;DHT22;3639;51.308;5.624;2022-11-20T10:08:19;4.30;99.90
7196;DHT22;3639;51.308;5.624;2022-11-20T10:10:54;4.30;99.90
7196;DHT22;3639;51.308;5.624;2022-11-20T10:16:18;4.30;99.90
7196;DHT22;3639;51.308;5.624;2022-11-20T10:24:38;4.60;99.90
7196;DHT22;3639;51.308;5.624;2022-11-20T10:27:21;4.70;99.90
7196;DHT22;3639;51.308;5.624;2022-11-20T10:30:17;4.80;99.90
7196;DHT22;3639;51.308;5.624;2022-11-20T10:32:50;4.80;99.90
7196;DHT22;3639;51.308;5.624;2022-11-20T10:35:40;4.80;99.90
7196;DHT22;3639;51.308;5.624;2022-11-20T10:38:17;4.80;99.90
7196;DHT22;3639;51.308;5.624;2022-11-20T10:40:46;4.70;99.90
7196;DHT22;3639;51.308;5.624;2022-11-20T10:43:17;4.70;99.90
7196;DHT22;3639;51.308;5.624;2022-11-20T10:46:04;4.80;99.90
7196;DHT22;3639;51.308;5.624;2022-11-20T10:48:32;4.80;99.90
7196;DHT22;3639;51.308;5.624;2022-11-20T10:54:39;4.90;99.90
7196;DHT22;3639;51.308;5.624;2022-11-20T11:00:12;4.90;99.90
7196;DHT22;3639;51.308;5.624;2022-11-20T11:05:33;5.10;99.90
7196;DHT22;3639;51.308;5.624;2022-11-20T11:08:01;5.10;99.90
7196;DHT22;3639;51.308;5.624;2022-11-20T11:10:51;5.10;99.90
7196;DHT22;3639;51.308;5.624;2022-11-20T11:13:22;5.00;99.90
7196;DHT22;3639;51.308;5.624;2022-11-20T11:15:48;5.00;99.90
7196;DHT22;3639;51.308;5.624;2022-11-20T11:18:30;4.90;99.90
7196;DHT22;3639;51.308;5.624;2022-11-20T11:21:00;4.90;99.90
7196;DHT22;3639;51.308;5.624;2022-11-20T11:23:39;4.90;99.90
7196;DHT22;3639;51.308;5.624;2022-11-20T11:26:26;4.90;99.90
7196;DHT22;3639;51.308;5.624;2022-11-20T11:29:03;5.10;99.90
7196;DHT22;3639;51.308;5.624;2022-11-20T11:31:31;5.10;99.90
7196;DHT22;3639;51.308;5.624;2022-11-20T11:34:06;5.00;99.90
7196;DHT22;3639;51.308;5.624;2022-11-20T11:36:34;5.00;99.90
7196;DHT22;3639;51.308;5.624;2022-11-20T11:39:01;5.00;99.90
7196;DHT22;3639;51.308;5.624;2022-11-20T11:41:33;4.90;99.90
7196;DHT22;3639;51.308;5.624;2022-11-20T11:44:17;4.90;99.90
7196;DHT22;3639;51.308;5.624;2022-11-20T11:47:04;5.00;99.90
7196;DHT22;3639;51.308;5.624;2022-11-20T11:49:30;5.10;99.90
7196;DHT22;3639;51.308;5.624;2022-11-20T11:52:16;5.00;99.90
7196;DHT22;3639;51.308;5.624;2022-11-20T11:54:52;5.00;99.90
7196;DHT22;3639;51.308;5.624;2022-11-20T12:00:10;5.10;99.90
7196;DHT22;3639;51.308;5.624;2022-11-20T12:02:49;5.10;99.90
7196;DHT22;3639;51.308;5.624;2022-11-20T12:08:18;5.20;99.90
7196;DHT22;3639;51.308;5.624;2022-11-20T12:13:58;5.20;99.90
7196;DHT22;3639;51.308;5.624;2022-11-20T12:16:33;5.30;99.90
7196;DHT22;3639;51.308;5.624;2022-11-20T12:19:00;5.30;99.90
7196;DHT22;3639;51.308;5.624;2022-11-20T12:35:42;5.40;99.90
7196;DHT22;3639;51.308;5.624;2022-11-20T12:43:39;5.60;99.90
7196;DHT22;3639;51.308;5.624;2022-11-20T12:46:49;5.70;99.90
7196;DHT22;3639;51.308;5.624;2022-11-20T12:49:46;5.90;99.90
7196;DHT22;3639;51.308;5.624;2022-11-20T12:52:29;5.90;99.90
7196;DHT22;3639;51.308;5.624;2022-11-20T13:00:22;6.10;99.90
7196;DHT22;3639;51.308;5.624;2022-11-20T13:06:02;6.20;99.90
7196;DHT22;3639;51.308;5.624;2022-11-20T13:08:35;6.30;99.90
7196;DHT22;3639;51.308;5.624;2022-11-20T13:11:21;6.20;99.90
7196;DHT22;3639;51.308;5.624;2022-11-20T13:16:48;6.20;99.90
7196;DHT22;3639;51.308;5.624;2022-11-20T13:19:17;6.20;99.90
7196;DHT22;3639;51.308;5.624;2022-11-20T13:21:48;6.20;99.90
7196;DHT22;3639;51.308;5.624;2022-11-20T13:26:45;6.10;99.90
7196;DHT22;3639;51.308;5.624;2022-11-20T13:29:19;6.10;99.90
7196;DHT22;3639;51.308;5.624;2022-11-20T13:31:48;6.10;99.90
7196;DHT22;3639;51.308;5.624;2022-11-20T13:34:26;6.10;99.90
7196;DHT22;3639;51.308;5.624;2022-11-20T13:36:54;6.10;99.90
7196;DHT22;3639;51.308;5.624;2022-11-20T13:39:27;6.20;99.90
7196;DHT22;3639;51.308;5.624;2022-11-20T13:42:01;6.20;99.90
7196;DHT22;3639;51.308;5.624;2022-11-20T13:44:38;6.30;99.90
7196;DHT22;3639;51.308;5.624;2022-11-20T13:47:19;6.30;99.90
7196;DHT22;3639;51.308;5.624;2022-11-20T13:49:45;6.30;99.90
7196;DHT22;3639;51.308;5.624;2022-11-20T13:55:26;6.30;99.90
7196;DHT22;3639;51.308;5.624;2022-11-20T14:00:55;6.30;99.90
7196;DHT22;3639;51.308;5.624;2022-11-20T14:03:23;6.30;99.90
7196;DHT22;3639;51.308;5.624;2022-11-20T14:05:55;6.30;99.90
7196;DHT22;3639;51.308;5.624;2022-11-20T14:11:17;6.30;99.90
7196;DHT22;3639;51.308;5.624;2022-11-20T14:13:57;6.20;99.90
7196;DHT22;3639;51.308;5.624;2022-11-20T14:16:24;6.20;99.90
7196;DHT22;3639;51.308;5.624;2022-11-20T14:18:50;6.20;99.90
7196;DHT22;3639;51.308;5.624;2022-11-20T14:21:28;6.20;99.90
7196;DHT22;3639;51.308;5.624;2022-11-20T14:24:18;6.20;99.90
7196;DHT22;3639;51.308;5.624;2022-11-20T14:26:45;6.10;99.90
7196;DHT22;3639;51.308;5.624;2022-11-20T14:29:33;6.10;99.90
7196;DHT22;3639;51.308;5.624;2022-11-20T14:32:01;6.10;99.90
7196;DHT22;3639;51.308;5.624;2022-11-20T14:34:32;6.00;99.90
7196;DHT22;3639;51.308;5.624;2022-11-20T14:37:00;6.00;99.90
7196;DHT22;3639;51.308;5.624;2022-11-20T14:39:31;6.00;99.90
7196;DHT22;3639;51.308;5.624;2022-11-20T14:41:58;6.10;99.90
7196;DHT22;3639;51.308;5.624;2022-11-20T14:44:27;6.10;99.90
7196;DHT22;3639;51.308;5.624;2022-11-20T14:46:54;6.10;99.90
7196;DHT22;3639;51.308;5.624;2022-11-20T14:49:20;6.10;99.90
7196;DHT22;3639;51.308;5.624;2022-11-20T14:51:46;6.10;99.90
7196;DHT22;3639;51.308;5.624;2022-11-20T14:54:15;6.10;99.90
7196;DHT22;3639;51.308;5.624;2022-11-20T14:56:42;6.10;99.90
7196;DHT22;3639;51.308;5.624;2022-11-20T14:59:23;6.00;99.90
7196;DHT22;3639;51.308;5.624;2022-11-20T15:02:04;6.00;99.90
7196;DHT22;3639;51.308;5.624;2022-11-20T15:04:30;6.00;99.90
7196;DHT22;3639;51.308;5.624;2022-11-20T15:06:58;6.00;99.90
7196;DHT22;3639;51.308;5.624;2022-11-20T15:09:24;6.00;99.90
7196;DHT22;3639;51.308;5.624;2022-11-20T15:12:02;6.00;99.90
7196;DHT22;3639;51.308;5.624;2022-11-20T15:14:30;6.00;99.90
7196;DHT22;3639;51.308;5.624;2022-11-20T15:16:59;6.00;99.90
7196;DHT22;3639;51.308;5.624;2022-11-20T15:19:26;6.00;99.90
7196;DHT22;3639;51.308;5.624;2022-11-20T15:21:52;6.10;99.90
7196;DHT22;3639;51.308;5.624;2022-11-20T15:24:19;6.10;99.90
7196;DHT22;3639;51.308;5.624;2022-11-20T15:26:45;6.10;99.90
7196;DHT22;3639;51.308;5.624;2022-11-20T15:29:12;6.10;99.90
7196;DHT22;3639;51.308;5.624;2022-11-20T15:31:39;6.20;99.90
7196;DHT22;3639;51.308;5.624;2022-11-20T15:34:14;6.20;99.90
7196;DHT22;3639;51.308;5.624;2022-11-20T15:36:40;6.20;99.90
7196;DHT22;3639;51.308;5.624;2022-11-20T15:39:07;6.30;99.90
7196;DHT22;3639;51.308;5.624;2022-11-20T15:41:36;6.30;99.90
7196;DHT22;3639;51.308;5.624;2022-11-20T15:44:03;6.30;99.90
7196;DHT22;3639;51.308;5.624;2022-11-20T15:46:31;6.30;99.90
7196;DHT22;3639;51.308;5.624;2022-11-20T15:49:03;6.30;99.90
7196;DHT22;3639;51.308;5.624;2022-11-20T15:51:36;6.40;99.90
7196;DHT22;3639;51.308;5.624;2022-11-20T15:54:14;6.40;99.90
7196;DHT22;3639;51.308;5.624;2022-11-20T15:56:40;6.40;99.90
7196;DHT22;3639;51.308;5.624;2022-11-20T15:59:06;6.40;99.90
7196;DHT22;3639;51.308;5.624;2022-11-20T16:01:31;6.50;99.90
7196;DHT22;3639;51.308;5.624;2022-11-20T16:03:57;6.50;99.90
7196;DHT22;3639;51.308;5.624;2022-11-20T16:06:22;6.50;99.90
7196;DHT22;3639;51.308;5.624;2022-11-20T16:08:48;6.50;99.90
7196;DHT22;3639;51.308;5.624;2022-11-20T16:11:16;6.50;99.90
7196;DHT22;3639;51.308;5.624;2022-11-20T16:13:42;6.60;99.90
7196;DHT22;3639;51.308;5.624;2022-11-20T16:16:35;6.60;99.90
7196;DHT22;3639;51.308;5.624;2022-11-20T16:19:01;6.50;99.90
7196;DHT22;3639;51.308;5.624;2022-11-20T16:21:27;6.50;99.90
7196;DHT22;3639;51.308;5.624;2022-11-20T16:23:57;6.60;99.90
7196;DHT22;3639;51.308;5.624;2022-11-20T16:26:23;6.60;99.90
7196;DHT22;3639;51.308;5.624;2022-11-20T16:28:49;6.60;99.90
7196;DHT22;3639;51.308;5.624;2022-11-20T16:31:17;6.60;99.90
7196;DHT22;3639;51.308;5.624;2022-11-20T16:33:48;6.70;99.90
7196;DHT22;3639;51.308;5.624;2022-11-20T16:36:14;6.70;99.90
7196;DHT22;3639;51.308;5.624;2022-11-20T16:38:41;6.70;99.90
7196;DHT22;3639;51.308;5.624;2022-11-20T16:41:08;6.70;99.90
7196;DHT22;3639;51.308;5.624;2022-11-20T16:43:51;6.70;99.90
7196;DHT22;3639;51.308;5.624;2022-11-20T16:46:19;6.70;99.90
7196;DHT22;3639;51.308;5.624;2022-11-20T16:48:52;6.70;99.90
7196;DHT22;3639;51.308;5.624;2022-11-20T16:51:18;6.70;99.90
7196;DHT22;3639;51.308;5.624;2022-11-20T16:53:44;6.70;99.90
7196;DHT22;3639;51.308;5.624;2022-11-20T16:56:15;6.70;99.90
7196;DHT22;3639;51.308;5.624;2022-11-20T16:58:42;6.80;99.90
7196;DHT22;3639;51.308;5.624;2022-11-20T17:01:09;6.90;99.90
7196;DHT22;3639;51.308;5.624;2022-11-20T17:03:39;6.90;99.90
7196;DHT22;3639;51.308;5.624;2022-11-20T17:06:22;6.90;99.90
7196;DHT22;3639;51.308;5.624;2022-11-20T17:08:48;6.90;99.90
7196;DHT22;3639;51.308;5.624;2022-11-20T17:11:17;7.00;99.90
7196;DHT22;3639;51.308;5.624;2022-11-20T17:13:43;7.00;99.90
7196;DHT22;3639;51.308;5.624;2022-11-20T17:16:17;7.10;99.90
7196;DHT22;3639;51.308;5.624;2022-11-20T17:18:43;7.10;99.90
7196;DHT22;3639;51.308;5.624;2022-11-20T17:21:10;7.10;99.90
7196;DHT22;3639;51.308;5.624;2022-11-20T17:23:38;7.20;99.90
7196;DHT22;3639;51.308;5.624;2022-11-20T17:26:06;7.20;99.90
7196;DHT22;3639;51.308;5.624;2022-11-20T17:28:33;7.20;99.90
7196;DHT22;3639;51.308;5.624;2022-11-20T17:31:05;7.30;99.90
7196;DHT22;3639;51.308;5.624;2022-11-20T17:33:34;7.30;99.90
7196;DHT22;3639;51.308;5.624;2022-11-20T17:36:00;7.30;99.90
7196;DHT22;3639;51.308;5.624;2022-11-20T17:38:25;7.40;99.90
7196;DHT22;3639;51.308;5.624;2022-11-20T17:40:51;7.40;99.90
7196;DHT22;3639;51.308;5.624;2022-11-20T17:43:17;7.50;99.90
7196;DHT22;3639;51.308;5.624;2022-11-20T17:45:43;7.60;99.90
7196;DHT22;3639;51.308;5.624;2022-11-20T17:48:10;7.60;99.90
7196;DHT22;3639;51.308;5.624;2022-11-20T17:50:35;7.60;99.90
7196;DHT22;3639;51.308;5.624;2022-11-20T17:53:01;7.60;99.90
7196;DHT22;3639;51.308;5.624;2022-11-20T17:55:27;7.60;99.90
7196;DHT22;3639;51.308;5.624;2022-11-20T17:58:12;7.60;99.90
7196;DHT22;3639;51.308;5.624;2022-11-20T18:00:38;7.70;99.90
7196;DHT22;3639;51.308;5.624;2022-11-20T18:03:03;7.70;99.90
7196;DHT22;3639;51.308;5.624;2022-11-20T18:05:29;7.80;99.90
7196;DHT22;3639;51.308;5.624;2022-11-20T18:07:55;7.80;99.90